Time;durP1;ratioP1;P1;durP2;ratioP2;P2;SDS_P1;SDS_P2;PMS_P1;PMS_P2;Temp;Humidity;BMP_temperature;BMP_pressure;BME280_temperature;BME280_humidity;BME280_pressure;Samples;Min_cycle;Max_cycle;Signal;HPM_P1;HPM_P2
2022/02/09 00:04:21;;;;;;;3.58;2.28;;;;;;;;;;5032095;28;20018;-37
2022/02/09 00:07:02;;;;;;;1.55;1.42;;;;;;;;;;5032029;28;20033;-37
2022/02/09 00:09:28;;;;;;;3.95;1.48;;;;;;;;;;5032369;28;20061;-37
2022/02/09 00:14:26;;;;;;;3.10;1.70;;;;;;;;;;5031924;28;20041;-37
2022/02/09 00:35:36;;;;;;;6.35;2.40;;;;;;;;;;5031397;28;20038;-37
2022/02/09 01:56:07;;;;;;;6.60;2.67;;;;;;;;;;5034701;28;20116;-37
2022/02/09 01:58:33;;;;;;;2.40;1.88;;;;;;;;;;5034554;28;20124;-37
2022/02/09 02:00:59;;;;;;;3.90;2.30;;;;;;;;;;5032899;28;20039;-38
2022/02/09 02:03:24;;;;;;;5.22;2.20;;;;;;;;;;5034707;28;20021;-37
2022/02/09 02:05:49;;;;;;;3.50;2.13;;;;;;;;;;5034916;28;20064;-37
2022/02/09 02:08:15;;;;;;;4.72;2.70;;;;;;;;;;5034143;28;20021;-37
2022/02/09 02:18:22;;;;;;;2.10;1.85;;;;;;;;;;5034349;28;20033;-37
2022/02/09 02:26:27;;;;;;;3.33;2.15;;;;;;;;;;5032712;28;20235;-37
2022/02/09 02:29:10;;;;;;;3.83;2.80;;;;;;;;;;5033922;28;20116;-37
2022/02/09 02:37:09;;;;;;;3.90;2.05;;;;;;;;;;5033923;28;20021;-37
2022/02/09 03:13:59;;;;;;;3.10;1.80;;;;;;;;;;5031931;28;20072;-37
2022/02/09 03:16:34;;;;;;;4.50;2.10;;;;;;;;;;5033331;28;20183;-37
2022/02/09 03:24:10;;;;;;;4.63;2.30;;;;;;;;;;5032826;28;20147;-37
2022/02/09 03:26:55;;;;;;;7.82;2.85;;;;;;;;;;5033160;28;20033;-37
2022/02/09 03:53:32;;;;;;;6.32;2.38;;;;;;;;;;5032161;28;20060;-38
2022/02/09 03:58:26;;;;;;;5.65;2.53;;;;;;;;;;5032489;28;20038;-37
2022/02/09 04:00:51;;;;;;;6.93;2.80;;;;;;;;;;5032047;28;20032;-37
2022/02/09 04:03:23;;;;;;;3.20;2.45;;;;;;;;;;5032101;28;20119;-37
2022/02/09 04:05:50;;;;;;;6.13;2.30;;;;;;;;;;5032356;28;20029;-37
2022/02/09 04:08:17;;;;;;;6.25;2.50;;;;;;;;;;5032132;28;20427;-37
2022/02/09 04:11:01;;;;;;;2.97;1.83;;;;;;;;;;5032249;28;20029;-37
2022/02/09 04:37:45;;;;;;;2.97;1.85;;;;;;;;;;5031572;28;20030;-37
2022/02/09 04:40:16;;;;;;;3.10;1.98;;;;;;;;;;5031693;28;20091;-37
2022/02/09 04:43:06;;;;;;;4.20;2.45;;;;;;;;;;5031376;28;20061;-37
2022/02/09 04:53:00;;;;;;;5.10;1.40;;;;;;;;;;5031586;28;20422;-37
2022/02/09 05:22:51;;;;;;;3.55;2.03;;;;;;;;;;5040713;28;20048;-37
2022/02/09 05:28:21;;;;;;;4.05;2.15;;;;;;;;;;5031340;28;20029;-37
2022/02/09 05:30:47;;;;;;;3.33;2.20;;;;;;;;;;5031018;28;20048;-37
2022/02/09 05:33:13;;;;;;;4.40;2.03;;;;;;;;;;5030744;28;20036;-37
2022/02/09 05:35:42;;;;;;;2.70;1.60;;;;;;;;;;5031011;28;20029;-37
2022/02/09 05:38:07;;;;;;;3.72;2.00;;;;;;;;;;5030854;28;20057;-37
2022/02/09 05:40:33;;;;;;;2.22;1.77;;;;;;;;;;5031061;28;20119;-37
2022/02/09 05:42:58;;;;;;;3.38;2.30;;;;;;;;;;5030880;28;20103;-37
2022/02/09 05:45:28;;;;;;;4.38;2.40;;;;;;;;;;5030797;28;20075;-37
2022/02/09 05:53:36;;;;;;;3.47;2.33;;;;;;;;;;5030718;28;20103;-37
2022/02/09 06:00:55;;;;;;;5.80;1.45;;;;;;;;;;5034624;28;20048;-38
2022/02/09 06:03:21;;;;;;;1.60;1.10;;;;;;;;;;5034629;28;20092;-37
2022/02/09 06:05:47;;;;;;;3.08;2.30;;;;;;;;;;5034332;28;20037;-37
2022/02/09 06:08:13;;;;;;;5.30;1.83;;;;;;;;;;5034206;28;20021;-38
2022/02/09 06:10:40;;;;;;;2.42;1.80;;;;;;;;;;5034540;28;20037;-37
2022/02/09 06:21:12;;;;;;;6.43;1.58;;;;;;;;;;5033890;28;20468;-37
2022/02/09 06:23:37;;;;;;;2.85;2.00;;;;;;;;;;5033079;28;20044;-37
2022/02/09 06:26:04;;;;;;;2.70;1.42;;;;;;;;;;5033860;28;20033;-37
2022/02/09 06:28:29;;;;;;;1.95;1.48;;;;;;;;;;5034572;28;20024;-37
2022/02/09 06:30:56;;;;;;;2.55;1.80;;;;;;;;;;5034081;28;20512;-37
2022/02/09 06:33:21;;;;;;;4.13;1.98;;;;;;;;;;5033727;28;20391;-37
2022/02/09 06:35:48;;;;;;;2.85;1.70;;;;;;;;;;5034390;28;20037;-37
2022/02/09 06:38:15;;;;;;;2.53;1.23;;;;;;;;;;5033946;28;20159;-37
2022/02/09 06:40:43;;;;;;;3.70;2.08;;;;;;;;;;5033698;28;20234;-37
2022/02/09 06:43:09;;;;;;;1.50;1.35;;;;;;;;;;5033546;28;20049;-37
2022/02/09 06:45:38;;;;;;;3.90;1.80;;;;;;;;;;5033876;28;20041;-37
2022/02/09 06:48:09;;;;;;;1.50;1.40;;;;;;;;;;5033598;28;20025;-37
2022/02/09 06:50:39;;;;;;;3.45;1.85;;;;;;;;;;5033437;28;20033;-37
2022/02/09 06:56:02;;;;;;;5.25;2.10;;;;;;;;;;5032832;28;20507;-37
2022/02/09 06:58:44;;;;;;;2.17;1.33;;;;;;;;;;5033570;28;20119;-37
2022/02/09 07:01:10;;;;;;;2.28;1.40;;;;;;;;;;5033316;28;20063;-37
2022/02/09 07:03:36;;;;;;;2.60;1.77;;;;;;;;;;5033381;28;20022;-37
2022/02/09 07:06:01;;;;;;;2.13;1.50;;;;;;;;;;5033442;28;20040;-37
2022/02/09 07:08:27;;;;;;;1.98;1.75;;;;;;;;;;5033199;28;20021;-37
2022/02/09 07:10:53;;;;;;;5.32;2.20;;;;;;;;;;5032769;28;20136;-37
2022/02/09 07:13:19;;;;;;;6.00;2.67;;;;;;;;;;5031738;28;20080;-37
2022/02/09 07:15:49;;;;;;;4.22;1.70;;;;;;;;;;5033115;28;20037;-37
2022/02/09 07:18:15;;;;;;;2.33;1.60;;;;;;;;;;5032970;28;20029;-37
2022/02/09 07:23:17;;;;;;;4.45;2.47;;;;;;;;;;5033134;28;20079;-37
2022/02/09 07:25:48;;;;;;;3.42;2.00;;;;;;;;;;5032999;28;20029;-37
2022/02/09 07:28:13;;;;;;;25.60;3.55;;;;;;;;;;5032644;28;20468;-37
2022/02/09 07:30:38;;;;;;;2.28;1.92;;;;;;;;;;5032806;28;20036;-37
2022/02/09 07:33:04;;;;;;;6.35;3.95;;;;;;;;;;5032849;28;20424;-36
2022/02/09 07:35:31;;;;;;;2.53;1.48;;;;;;;;;;5032659;28;20037;-37
2022/02/09 07:37:57;;;;;;;6.50;1.75;;;;;;;;;;5032726;28;20018;-37
2022/02/09 07:40:23;;;;;;;2.22;1.77;;;;;;;;;;5032484;28;20037;-37
2022/02/09 07:42:59;;;;;;;2.05;1.60;;;;;;;;;;5032325;28;20073;-37
2022/02/09 07:50:49;;;;;;;4.75;2.17;;;;;;;;;;5031065;28;20083;-37
2022/02/09 07:53:25;;;;;;;2.65;1.48;;;;;;;;;;5032526;28;20040;-36
2022/02/09 07:55:50;;;;;;;3.15;1.70;;;;;;;;;;5032650;28;20095;-37
2022/02/09 07:58:16;;;;;;;1.88;1.75;;;;;;;;;;5032160;28;20033;-37
2022/02/09 08:00:44;;;;;;;3.88;1.25;;;;;;;;;;5032504;28;20091;-37
2022/02/09 08:03:10;;;;;;;2.80;1.73;;;;;;;;;;5032250;28;20116;-37
2022/02/09 08:05:36;;;;;;;5.53;2.22;;;;;;;;;;5032149;28;20033;-37
2022/02/09 08:08:02;;;;;;;2.55;1.58;;;;;;;;;;5032020;28;20040;-37
2022/02/09 08:24:49;;;;;;;2.42;1.23;;;;;;;;;;5031122;28;20029;-37
2022/02/09 08:27:19;;;;;;;2.08;1.48;;;;;;;;;;5031761;28;20026;-37
2022/02/09 08:30:00;;;;;;;2.22;1.38;;;;;;;;;;5031638;28;20033;-37
2022/02/09 08:34:52;;;;;;;4.43;1.70;;;;;;;;;;5031889;28;20108;-37
2022/02/09 08:37:17;;;;;;;2.67;1.85;;;;;;;;;;5031870;28;20478;-37
2022/02/09 08:39:43;;;;;;;1.13;1.02;;;;;;;;;;5031524;28;20021;-36
2022/02/09 08:42:09;;;;;;;3.00;1.83;;;;;;;;;;5031499;28;20077;-37
2022/02/09 08:44:35;;;;;;;6.45;1.38;;;;;;;;;;5031736;28;20029;-37
2022/02/09 08:47:01;;;;;;;4.05;1.92;;;;;;;;;;5031778;28;20571;-37
2022/02/09 08:49:28;;;;;;;3.08;1.63;;;;;;;;;;5031598;28;20116;-37
2022/02/09 08:51:57;;;;;;;1.90;1.77;;;;;;;;;;5031337;28;20025;-37
2022/02/09 08:54:23;;;;;;;1.73;1.40;;;;;;;;;;5031206;28;20030;-37
2022/02/09 08:56:49;;;;;;;2.25;1.63;;;;;;;;;;5031372;28;20032;-37
2022/02/09 08:59:15;;;;;;;4.70;1.58;;;;;;;;;;5031271;28;20353;-37
2022/02/09 09:01:48;;;;;;;4.50;2.13;;;;;;;;;;5031523;28;20060;-37
2022/02/09 09:04:24;;;;;;;4.68;2.13;;;;;;;;;;5031217;28;20373;-37
2022/02/09 09:06:59;;;;;;;2.53;1.27;;;;;;;;;;5031227;28;20531;-37
2022/02/09 09:15:45;;;;;;;1.70;1.33;;;;;;;;;;5031193;28;20599;-37
2022/02/09 09:58:05;;;;;;;3.13;1.02;;;;;;;;;;5034731;28;20464;-37
2022/02/09 10:03:36;;;;;;;1.73;1.15;;;;;;;;;;5034385;28;20113;-37
2022/02/09 10:31:48;;;;;;;1.92;1.67;;;;;;;;;;5033741;28;20038;-37
2022/02/09 10:34:09;;;;;;;1.17;0.75;;;;;;;;;;5033704;28;20045;-38
2022/02/09 10:36:57;;;;;;;4.65;1.23;;;;;;;;;;5033819;28;20014;-37
2022/02/09 10:39:32;;;;;;;3.33;1.00;;;;;;;;;;5033622;28;20037;-37
2022/02/09 10:42:13;;;;;;;1.73;1.15;;;;;;;;;;5033585;28;20412;-37
2022/02/09 10:44:51;;;;;;;4.45;1.33;;;;;;;;;;5033731;28;20025;-37
2022/02/09 10:47:28;;;;;;;2.58;1.30;;;;;;;;;;5032847;28;20423;-37
2022/02/09 10:50:13;;;;;;;1.48;0.95;;;;;;;;;;5033592;28;20030;-37
2022/02/09 10:52:46;;;;;;;1.73;1.00;;;;;;;;;;5033771;28;20116;-37
2022/02/09 10:55:34;;;;;;;3.50;1.35;;;;;;;;;;5033403;28;20479;-37
2022/02/09 10:58:00;;;;;;;2.72;1.13;;;;;;;;;;5033436;28;20044;-37
2022/02/09 11:00:27;;;;;;;1.48;1.15;;;;;;;;;;5033245;28;20025;-37
2022/02/09 11:02:53;;;;;;;1.00;0.93;;;;;;;;;;5032063;28;20036;-38
2022/02/09 11:05:20;;;;;;;4.00;1.27;;;;;;;;;;5033597;28;20388;-37
2022/02/09 11:07:49;;;;;;;1.55;1.23;;;;;;;;;;5033240;28;20029;-37
2022/02/09 11:10:15;;;;;;;1.13;1.02;;;;;;;;;;5033429;28;20025;-37
2022/02/09 11:12:43;;;;;;;2.25;1.15;;;;;;;;;;5033297;28;20116;-37
2022/02/09 11:15:17;;;;;;;5.63;1.13;;;;;;;;;;5033318;28;20080;-37
2022/02/09 11:17:47;;;;;;;2.50;1.13;;;;;;;;;;5033121;28;20037;-37
2022/02/09 11:20:19;;;;;;;1.30;1.20;;;;;;;;;;5033339;28;20040;-37
2022/02/09 11:22:45;;;;;;;1.20;1.10;;;;;;;;;;5033048;28;20095;-37
2022/02/09 11:25:12;;;;;;;0.63;0.60;;;;;;;;;;5032785;28;20033;-37
2022/02/09 11:27:45;;;;;;;3.55;1.23;;;;;;;;;;5033219;28;20470;-37
2022/02/09 11:30:34;;;;;;;5.55;1.58;;;;;;;;;;5032621;28;20033;-37
2022/02/09 11:33:28;;;;;;;3.67;1.98;;;;;;;;;;5033107;28;20422;-37
2022/02/09 11:36:33;;;;;;;4.32;2.15;;;;;;;;;;5033006;28;20041;-38
2022/02/09 11:39:09;;;;;;;3.58;2.08;;;;;;;;;;5032628;28;20049;-36
2022/02/09 11:41:40;;;;;;;2.92;2.03;;;;;;;;;;5032913;28;20404;-37
2022/02/09 11:44:12;;;;;;;5.82;2.50;;;;;;;;;;5031643;28;20029;-37
2022/02/09 11:46:47;;;;;;;4.32;2.15;;;;;;;;;;5032692;28;20109;-37
2022/02/09 12:11:19;;;;;;;5.47;3.35;;;;;;;;;;5031877;28;20046;-37
2022/02/09 12:13:57;;;;;;;4.60;2.83;;;;;;;;;;5031641;28;20042;-37
2022/02/09 12:19:35;;;;;;;4.90;3.17;;;;;;;;;;5032577;28;20558;-37
2022/02/09 12:24:27;;;;;;;3.95;2.83;;;;;;;;;;5029979;28;20025;-37
2022/02/09 12:27:04;;;;;;;5.03;3.47;;;;;;;;;;5031917;28;20184;-36
2022/02/09 12:29:32;;;;;;;5.13;3.15;;;;;;;;;;5031727;28;20033;-37
2022/02/09 12:31:58;;;;;;;8.43;2.92;;;;;;;;;;5032054;28;20022;-37
2022/02/09 12:34:25;;;;;;;6.55;3.67;;;;;;;;;;5031426;28;20195;-37
2022/02/09 12:36:52;;;;;;;6.55;2.85;;;;;;;;;;5031757;28;20025;-37
2022/02/09 12:39:19;;;;;;;5.63;3.13;;;;;;;;;;5031954;28;20050;-37
2022/02/09 12:41:45;;;;;;;5.68;3.85;;;;;;;;;;5031291;28;20050;-36
2022/02/09 12:44:11;;;;;;;7.65;4.05;;;;;;;;;;5031492;28;20499;-38
2022/02/09 12:46:39;;;;;;;5.28;3.67;;;;;;;;;;5031419;28;20037;-37
2022/02/09 12:49:08;;;;;;;6.85;3.42;;;;;;;;;;5031434;28;20087;-37
2022/02/09 12:51:34;;;;;;;9.65;3.60;;;;;;;;;;5031593;28;20057;-37
2022/02/09 12:54:01;;;;;;;5.72;4.15;;;;;;;;;;5031336;28;20045;-37
2022/02/09 12:56:32;;;;;;;4.78;3.28;;;;;;;;;;5031249;28;20021;-37
2022/02/09 12:59:08;;;;;;;7.75;3.47;;;;;;;;;;5031305;28;20056;-37
2022/02/09 13:01:40;;;;;;;9.63;3.85;;;;;;;;;;5031147;28;20021;-37
2022/02/09 13:04:06;;;;;;;6.15;3.75;;;;;;;;;;5031547;28;20644;-37
2022/02/09 13:06:31;;;;;;;5.38;3.22;;;;;;;;;;5031242;28;20030;-37
2022/02/09 13:08:57;;;;;;;8.35;4.20;;;;;;;;;;5030804;28;20034;-37
2022/02/09 13:11:28;;;;;;;6.22;3.85;;;;;;;;;;5031140;28;20418;-37
2022/02/09 13:14:01;;;;;;;5.50;3.40;;;;;;;;;;5031095;28;20486;-37
2022/02/09 14:03:15;;;;;;;10.20;3.42;;;;;;;;;;5030736;28;20497;-37
2022/02/09 14:56:38;;;;;;;8.63;3.85;;;;;;;;;;5033019;28;20057;-37
2022/02/09 14:58:59;;;;;;;5.38;3.85;;;;;;;;;;5033275;28;20029;-37
2022/02/09 15:01:42;;;;;;;6.17;3.87;;;;;;;;;;5033708;28;20030;-37
2022/02/09 15:04:27;;;;;;;7.20;3.95;;;;;;;;;;5033652;28;20102;-37
2022/02/09 15:12:19;;;;;;;10.95;3.58;;;;;;;;;;5033125;28;20392;-37
2022/02/09 15:15:04;;;;;;;7.68;4.25;;;;;;;;;;5033385;28;20053;-37
2022/02/09 15:20:14;;;;;;;13.63;4.55;;;;;;;;;;5033040;28;20080;-37
2022/02/09 15:22:42;;;;;;;8.27;3.83;;;;;;;;;;5033444;28;20365;-37
2022/02/09 15:25:18;;;;;;;10.30;4.65;;;;;;;;;;5033149;28;20372;-37
2022/02/09 15:27:44;;;;;;;9.35;3.85;;;;;;;;;;5032971;28;20079;-37
2022/02/09 15:30:10;;;;;;;4.72;3.55;;;;;;;;;;5033085;28;20026;-37
2022/02/09 15:32:41;;;;;;;7.80;4.78;;;;;;;;;;5032769;28;20086;-37
2022/02/09 15:35:23;;;;;;;7.20;4.40;;;;;;;;;;5032703;28;20111;-37
2022/02/09 15:38:01;;;;;;;9.80;4.68;;;;;;;;;;5032991;28;20082;-37
2022/02/09 16:37:31;;;;;;;12.70;5.40;;;;;;;;;;5031482;28;20021;-37
2022/02/09 16:44:49;;;;;;;6.68;4.55;;;;;;;;;;5030762;28;20037;-37
2022/02/09 16:47:39;;;;;;;8.00;4.15;;;;;;;;;;5031457;28;20029;-37
2022/02/09 16:50:04;;;;;;;7.97;4.55;;;;;;;;;;5031252;28;20080;-37
2022/02/09 16:52:39;;;;;;;9.60;4.32;;;;;;;;;;5031345;28;20021;-37
2022/02/09 16:55:37;;;;;;;6.90;3.95;;;;;;;;;;5031347;28;20119;-37
2022/02/09 17:19:49;;;;;;;7.22;4.28;;;;;;;;;;5031420;28;20044;-37
2022/02/09 17:22:15;;;;;;;5.75;3.45;;;;;;;;;;5031144;28;20424;-37
2022/02/09 17:24:41;;;;;;;11.65;4.30;;;;;;;;;;5031134;28;20040;-37
2022/02/09 17:27:11;;;;;;;8.27;4.60;;;;;;;;;;5031309;28;20180;-37
2022/02/09 17:35:14;;;;;;;11.00;4.72;;;;;;;;;;5030992;28;20033;-37
2022/02/09 17:53:49;;;;;;;8.48;4.50;;;;;;;;;;5030953;28;20042;-37
2022/02/09 17:56:19;;;;;;;6.85;3.92;;;;;;;;;;5033589;28;20104;-37
2022/02/09 17:58:50;;;;;;;5.80;3.92;;;;;;;;;;5034537;28;20041;-37
2022/02/09 18:01:16;;;;;;;7.82;4.40;;;;;;;;;;5034614;28;20021;-37
2022/02/09 18:03:42;;;;;;;8.43;4.93;;;;;;;;;;5034839;28;20025;-37
2022/02/09 18:06:21;;;;;;;5.68;4.15;;;;;;;;;;5034472;28;20083;-37
2022/02/09 18:09:27;;;;;;;10.70;5.47;;;;;;;;;;5034281;28;20040;-37
2022/02/09 18:12:19;;;;;;;7.80;4.55;;;;;;;;;;5034100;28;20388;-37
2022/02/09 18:14:57;;;;;;;8.07;4.97;;;;;;;;;;5034680;28;20053;-37
2022/02/09 18:31:10;;;;;;;8.48;4.15;;;;;;;;;;5014152;28;20095;-35
2022/02/09 19:00:12;;;;;;;7.88;4.18;;;;;;;;;;5014040;28;20471;-35
2022/02/09 19:02:55;;;;;;;9.30;5.25;;;;;;;;;;5013726;28;20025;-35
2022/02/09 19:05:43;;;;;;;11.32;4.47;;;;;;;;;;5014097;28;20022;-36
2022/02/09 19:08:17;;;;;;;10.88;5.07;;;;;;;;;;5013091;28;20133;-36
2022/02/09 19:19:22;;;;;;;8.52;5.00;;;;;;;;;;5013620;28;20037;-35
2022/02/09 19:46:05;;;;;;;7.78;5.50;;;;;;;;;;4992091;28;20616;-36
2022/02/09 19:48:37;;;;;;;10.88;6.13;;;;;;;;;;4993866;28;20026;-36
2022/02/09 19:56:17;;;;;;;10.60;5.88;;;;;;;;;;4993529;28;20034;-36
2022/02/09 19:59:04;;;;;;;10.60;5.53;;;;;;;;;;4993924;28;20081;-36
2022/02/09 20:01:36;;;;;;;9.75;5.90;;;;;;;;;;4993574;28;20041;-36
2022/02/09 20:04:06;;;;;;;10.93;5.63;;;;;;;;;;4993776;28;20111;-36
2022/02/09 20:06:32;;;;;;;7.40;4.95;;;;;;;;;;4993737;28;20034;-36
2022/02/09 20:08:57;;;;;;;9.63;4.65;;;;;;;;;;4993377;28;20492;-36
2022/02/09 20:11:23;;;;;;;9.43;4.72;;;;;;;;;;4993608;28;20045;-36
2022/02/09 20:13:52;;;;;;;9.98;4.85;;;;;;;;;;4993457;28;20216;-36
2022/02/09 20:16:20;;;;;;;12.23;5.47;;;;;;;;;;4993266;28;20019;-36
2022/02/09 20:18:55;;;;;;;11.98;5.68;;;;;;;;;;4993300;28;20116;-36
2022/02/09 20:21:23;;;;;;;7.00;4.88;;;;;;;;;;4992025;28;20396;-36
2022/02/09 20:23:51;;;;;;;7.60;5.22;;;;;;;;;;4993217;28;20026;-37
2022/02/09 20:26:17;;;;;;;7.57;5.40;;;;;;;;;;4993440;28;20038;-36
2022/02/09 20:28:50;;;;;;;9.93;5.88;;;;;;;;;;4993363;28;20049;-36
2022/02/09 20:31:20;;;;;;;9.57;5.95;;;;;;;;;;4993225;28;20033;-36
2022/02/09 20:33:52;;;;;;;8.23;5.80;;;;;;;;;;4992785;28;20476;-36
2022/02/09 20:36:18;;;;;;;9.27;5.43;;;;;;;;;;4992999;28;20443;-36
2022/02/09 20:38:52;;;;;;;8.10;5.18;;;;;;;;;;4992994;28;20102;-35
2022/02/09 20:41:20;;;;;;;7.85;5.28;;;;;;;;;;4992784;28;20026;-36
2022/02/09 20:43:59;;;;;;;10.10;5.18;;;;;;;;;;4992830;28;20034;-36
2022/02/09 20:46:27;;;;;;;5.45;4.68;;;;;;;;;;4991597;28;20030;-35
2022/02/09 20:48:52;;;;;;;8.15;5.65;;;;;;;;;;4992675;28;20436;-35
2022/02/09 20:51:18;;;;;;;13.00;5.65;;;;;;;;;;4992617;28;20030;-36
2022/02/09 20:53:44;;;;;;;12.57;6.20;;;;;;;;;;4992984;28;20089;-36
2022/02/09 20:56:09;;;;;;;9.35;5.38;;;;;;;;;;4992577;28;20119;-35
2022/02/09 20:58:37;;;;;;;8.68;6.63;;;;;;;;;;4992968;28;20034;-36
2022/02/09 21:01:19;;;;;;;8.65;6.35;;;;;;;;;;4992774;28;20026;-36
2022/02/09 21:06:29;;;;;;;8.52;5.20;;;;;;;;;;4992568;28;20022;-36
2022/02/09 21:09:02;;;;;;;6.20;4.20;;;;;;;;;;4992623;28;20163;-36
2022/02/09 21:11:47;;;;;;;10.43;4.93;;;;;;;;;;4992493;28;20065;-36
2022/02/09 21:14:32;;;;;;;8.63;5.38;;;;;;;;;;4992409;28;20046;-36
2022/02/09 21:46:43;;;;;;;9.07;4.80;;;;;;;;;;4996022;28;20212;-35
2022/02/09 22:20:25;;;;;;;10.23;6.22;;;;;;;;;;4995784;28;20038;-35
2022/02/09 22:28:08;;;;;;;10.02;5.57;;;;;;;;;;4995297;28;20476;-36
2022/02/09 22:47:39;;;;;;;9.02;5.40;;;;;;;;;;4995194;28;20439;-36
2022/02/09 22:55:24;;;;;;;12.40;6.90;;;;;;;;;;4995001;28;20093;-36
2022/02/09 22:57:56;;;;;;;10.13;6.32;;;;;;;;;;4995390;28;20046;-35
2022/02/09 23:00:34;;;;;;;8.60;4.53;;;;;;;;;;4995016;28;20034;-36
2022/02/09 23:03:00;;;;;;;10.35;6.72;;;;;;;;;;4994892;28;20113;-36
2022/02/09 23:08:17;;;;;;;11.18;5.95;;;;;;;;;;4994697;28;20037;-35
2022/02/09 23:13:53;;;;;;;12.07;5.90;;;;;;;;;;4994690;28;20038;-36
2022/02/09 23:21:50;;;;;;;13.82;7.43;;;;;;;;;;4994085;28;20105;-36
